Mount Dora, FL

3:18 PM EST on December 20, 2014 (GMT -0500)
Lake Saunders RV Resort | Change Station
CLOSE
Current Station
Personal Weather Station
Location: Mt Dora, FL
Elevation: 121 ft
Nearby Weather Stations

Elev 121 ft 28.81 °N, 81.69 °W | Updated 6 seconds ago

Partly Cloudy
Partly Cloudy
73.0 °F
Feels Like 76 °F
N
3.5
Wind Variable Wind from ENE
Gusts 3.5 mph

Today
High -- | Low -- °F
--% Chance of Precip.
Yesterday
High -- | Low -- °F
Precip. -- in
7:15 AM 5:33 PM
Waning Crescent, 2% visible
Pressure 30.04 in
Visibility 10.0 miles
Clouds Mostly Cloudy 10000 ft
Overcast 12000 ft
Heat Index 76 °F
Dew Point 60 °F
Humidity 63%
Rainfall 0.00 in
Snow Depth Not available.
UV 1 out of 12
Pollen 6.80 out of 12
Air Quality Not available.
Flu Activity Not available.
METAR KLEE 201953Z 13004KT 10SM BKN100 OVC120 24/13 A3005 RMK AO2 SLP173 T02390133

More Conditions Fewer Conditions

Pressure 30.04 in
Visibility 10.0 miles
Clouds Mostly Cloudy 10000 ft
Overcast 12000 ft
Heat Index 76 °F
Dew Point 60 °F
Humidity 63%
Rainfall 0.00 in
Snow Depth Not available.
UV 1 out of 12
Pollen 6.80 out of 12
Air Quality Not available.
Flu Activity Not available.
METAR KLEE 201953Z 13004KT 10SM BKN100 OVC120 24/13 A3005 RMK AO2 SLP173 T02390133

More Conditions Fewer Conditions

10-Day Weather Forecast

Almanac

Astronomy

Dec. 20, 2014 Rise Set
Actual Time
Civil Twilight
Nautical Twilight
Astronomical Twilight
Moon
Length of Visible Light
Length of Day
Tomorrow will be .
, % of the Moon is Illuminated

Today's Extremes

State Highs State Lows

Community

WunderPhotos

Upload Photos

1,779,268 photos uploaded!

WunderBlogs® & News

Nearby

Air Quality

  Air Quality AQ Index Pollutant
Not available.

Snow Depth

Station Depth Elevation

Earthquake Activity

City Distance Mag. Time & Date
Minimum magnitude displayed is 2.5.

Coastal Water Temperatures

Place Temperature

Nearby Weather Stations